Terminal Aerodrome Forecast
Issued by NWS

Current Version | Previous Version | Text Only | Print | Product List | Glossary On
Versions: 1 2 3 4 5 6 7 8 9 10 11 12 13 14 15 16
000
FTUS43 KILX 220536
TAFBMI
TAF
KBMI 220536Z 2206/2306 33010KT P6SM SKC
     FM221800 28007KT P6SM SKC
     FM230200 17007KT P6SM BKN250=

USA.gov is the U.S. government's official web portal to all federal, state and local government web resources and services.